Time;durP1;ratioP1;P1;durP2;ratioP2;P2;SDS_P1;SDS_P2;PMS_P1;PMS_P2;Temp;Humidity;BMP_temperature;BMP_pressure;BME280_temperature;BME280_humidity;BME280_pressure;Samples;Min_cycle;Max_cycle;Signal;HPM_P1;HPM_P2
2022/11/02 00:01:25;;;;;;;28.05;14.80;;;3.80;81.10;;;;;;5084761;28;43185;-73
2022/11/02 00:03:53;;;;;;;27.88;14.90;;;3.80;85.00;;;;;;5086925;28;42506;-72
2022/11/02 00:06:21;;;;;;;32.17;15.75;;;3.80;91.00;;;;;;5084813;28;41188;-72
2022/11/02 00:08:49;;;;;;;23.27;14.02;;;3.80;94.60;;;;;;5084404;28;40293;-72
2022/11/02 00:11:16;;;;;;;31.55;14.95;;;3.80;97.70;;;;;;5085120;28;43975;-72
2022/11/02 00:13:45;;;;;;;25.92;14.05;;;3.80;96.90;;;;;;5084648;28;42296;-72
2022/11/02 00:16:15;;;;;;;26.38;15.30;;;3.90;98.00;;;;;;5084908;28;40003;-73
2022/11/02 00:18:43;;;;;;;29.45;14.68;;;3.90;97.20;;;;;;5084920;28;40290;-71
2022/11/02 00:21:12;;;;;;;34.03;14.80;;;3.90;97.20;;;;;;5084804;28;43382;-71
2022/11/02 00:23:41;;;;;;;27.65;15.10;;;3.80;94.50;;;;;;5084585;28;43502;-71
2022/11/02 00:26:09;;;;;;;32.25;15.60;;;3.60;96.80;;;;;;5084518;28;41074;-73
2022/11/02 00:28:37;;;;;;;28.45;15.98;;;3.40;99.90;;;;;;5084592;28;39909;-72
2022/11/02 00:31:05;;;;;;;32.10;16.85;;;3.40;99.90;;;;;;5084752;28;43766;-73
2022/11/02 00:33:35;;;;;;;27.52;16.08;;;3.40;99.90;;;;;;5083520;28;42280;-72
2022/11/02 00:36:02;;;;;;;30.08;15.93;;;3.40;99.90;;;;;;5083203;28;41494;-72
2022/11/02 00:38:31;;;;;;;25.50;15.02;;;3.40;99.90;;;;;;5086187;28;39565;-73
2022/11/02 00:40:59;;;;;;;33.85;15.50;;;3.30;99.90;;;;;;5084348;28;43893;-73
2022/11/02 00:43:27;;;;;;;25.42;14.98;;;3.40;99.90;;;;;;5086308;28;42807;-72
2022/11/02 00:45:55;;;;;;;24.73;14.43;;;3.40;99.90;;;;;;5084508;28;40472;-71
2022/11/02 00:48:23;;;;;;;26.35;14.43;;;3.30;99.90;;;;;;5086464;28;39598;-71
2022/11/02 00:50:52;;;;;;;25.40;13.75;;;3.30;99.90;;;;;;5084193;28;43695;-73
2022/11/02 00:53:23;;;;;;;25.60;15.10;;;3.30;99.90;;;;;;5103159;28;41990;-72
2022/11/02 00:55:53;;;;;;;23.83;14.48;;;3.40;99.90;;;;;;5069262;28;40006;-73
2022/11/02 00:58:21;;;;;;;30.33;14.98;;;3.30;99.90;;;;;;5086039;28;40623;-72
2022/11/02 01:00:51;;;;;;;28.35;14.32;;;3.20;99.90;;;;;;5084017;28;42889;-72
2022/11/02 01:03:19;;;;;;;29.85;14.27;;;3.10;99.90;;;;;;5086029;28;42195;-72
2022/11/02 01:05:47;;;;;;;28.70;14.25;;;3.10;99.90;;;;;;5082880;28;40178;-72
2022/11/02 01:08:17;;;;;;;30.15;14.75;;;3.10;99.90;;;;;;5086275;28;39653;-72
2022/11/02 01:10:45;;;;;;;30.13;16.13;;;3.00;99.90;;;;;;5083824;28;43286;-72
2022/11/02 01:13:13;;;;;;;25.02;14.85;;;3.00;99.90;;;;;;5085756;28;42026;-72
2022/11/02 01:15:41;;;;;;;28.20;14.68;;;2.90;99.90;;;;;;5083932;28;40746;-72
2022/11/02 01:18:09;;;;;;;29.70;16.27;;;2.90;99.90;;;;;;5102879;28;40697;-72
2022/11/02 01:20:37;;;;;;;29.15;14.93;;;2.90;99.90;;;;;;5073241;28;166316;-73
2022/11/02 01:23:05;;;;;;;32.47;14.93;;;2.90;99.90;;;;;;5078393;28;163398;-72
2022/11/02 01:25:35;;;;;;;34.53;16.13;;;2.80;99.90;;;;;;5083876;28;40213;-72
2022/11/02 01:28:02;;;;;;;32.72;14.90;;;2.80;99.90;;;;;;5017153;28;188836;-72
2022/11/02 01:30:30;;;;;;;25.30;13.40;;;2.70;99.90;;;;;;5082150;28;43565;-72
2022/11/02 01:32:58;;;;;;;26.63;14.38;;;2.70;99.90;;;;;;5079040;28;165210;-73
2022/11/02 01:35:28;;;;;;;30.55;15.50;;;2.70;99.90;;;;;;5085379;28;39726;-72
2022/11/02 01:37:55;;;;;;;28.38;15.07;;;2.60;99.90;;;;;;5085002;28;40544;-72
2022/11/02 01:40:24;;;;;;;30.00;15.48;;;2.60;99.90;;;;;;5099133;28;43299;-73
2022/11/02 01:42:53;;;;;;;35.92;15.75;;;2.60;99.90;;;;;;5083371;28;43648;-72
2022/11/02 01:45:21;;;;;;;30.35;16.60;;;2.50;99.90;;;;;;5081787;28;41403;-73
2022/11/02 01:47:49;;;;;;;28.52;15.13;;;2.40;99.90;;;;;;5077731;28;162923;-73
2022/11/02 01:50:21;;;;;;;33.10;15.98;;;2.40;99.90;;;;;;5082091;28;43228;-72
2022/11/02 01:52:49;;;;;;;32.90;15.75;;;2.30;99.90;;;;;;5083219;28;42564;-71
2022/11/02 01:55:20;;;;;;;31.17;17.25;;;2.30;99.90;;;;;;5083432;28;39909;-71
2022/11/02 01:57:51;;;;;;;32.33;14.40;;;2.20;99.90;;;;;;5085347;28;39947;-72
2022/11/02 02:00:20;;;;;;;36.75;16.27;;;2.10;99.90;;;;;;5081954;28;42919;-73
2022/11/02 02:02:52;;;;;;;31.95;16.15;;;2.10;99.90;;;;;;5087843;28;42655;-73
2022/11/02 02:05:23;;;;;;;33.85;16.20;;;2.10;99.90;;;;;;5102371;28;40331;-72
2022/11/02 02:07:52;;;;;;;32.20;16.30;;;2.00;99.90;;;;;;5088664;28;40066;-72
2022/11/02 02:10:20;;;;;;;31.40;16.70;;;2.00;99.90;;;;;;5086536;28;43893;-72
2022/11/02 02:12:49;;;;;;;29.80;15.90;;;2.00;99.90;;;;;;5071470;28;41696;-72
2022/11/02 02:15:26;;;;;;;31.48;16.08;;;2.00;99.90;;;;;;5086698;28;40576;-72
2022/11/02 02:17:58;;;;;;;28.85;14.57;;;1.90;99.90;;;;;;5088771;28;39688;-72
2022/11/02 02:20:42;;;;;;;35.83;16.25;;;1.90;99.90;;;;;;5085102;28;45068;-72
2022/11/02 02:23:37;;;;;;;30.52;14.95;;;1.90;99.90;;;;;;5086466;28;43070;-71
2022/11/02 02:26:31;;;;;;;29.08;16.00;;;1.80;99.90;;;;;;5086386;28;41354;-71
2022/11/02 02:29:03;;;;;;;24.95;13.25;;;1.80;99.90;;;;;;5105334;28;40048;-72
2022/11/02 02:31:36;;;;;;;26.98;13.95;;;1.80;99.90;;;;;;5086152;28;43781;-72
2022/11/02 02:34:09;;;;;;;31.45;14.60;;;1.80;99.90;;;;;;5086033;28;42384;-72
2022/11/02 02:36:44;;;;;;;23.52;13.10;;;1.80;99.90;;;;;;5085244;28;41237;-72
2022/11/02 02:39:18;;;;;;;27.08;14.05;;;1.80;99.90;;;;;;5086223;28;40340;-72
2022/11/02 02:41:49;;;;;;;32.75;15.02;;;1.80;99.90;;;;;;5087896;28;43536;-72
2022/11/02 02:44:22;;;;;;;32.13;14.85;;;1.90;99.90;;;;;;5084698;28;44527;-71
2022/11/02 02:46:52;;;;;;;30.55;15.98;;;1.80;99.90;;;;;;5086402;28;41023;-71
2022/11/02 02:49:25;;;;;;;28.92;15.75;;;1.80;99.90;;;;;;5087966;28;39951;-72
2022/11/02 02:51:56;;;;;;;34.35;16.85;;;1.80;99.90;;;;;;5087656;28;42466;-72
2022/11/02 02:54:26;;;;;;;31.15;15.50;;;1.80;99.90;;;;;;5085793;28;43200;-72
2022/11/02 02:56:57;;;;;;;27.30;14.68;;;1.80;99.90;;;;;;5087800;28;40559;-73
2022/11/02 02:59:28;;;;;;;29.00;14.95;;;1.70;99.90;;;;;;5084601;28;40282;-72
2022/11/02 03:01:59;;;;;;;28.98;15.25;;;1.80;99.90;;;;;;5084404;28;44083;-72
2022/11/02 03:04:27;;;;;;;28.58;14.50;;;1.80;99.90;;;;;;5085689;28;43641;-72
2022/11/02 03:06:58;;;;;;;29.08;13.85;;;1.70;99.90;;;;;;5086074;28;41082;-72
2022/11/02 03:09:32;;;;;;;25.65;14.88;;;1.80;99.90;;;;;;5087696;28;39249;-72
2022/11/02 03:12:14;;;;;;;33.38;15.40;;;1.70;99.90;;;;;;5085400;28;43854;-72
2022/11/02 03:14:51;;;;;;;29.38;14.48;;;1.70;99.90;;;;;;5087770;28;43063;-72
2022/11/02 03:17:25;;;;;;;28.35;15.60;;;1.70;99.90;;;;;;5084300;28;40112;-72
2022/11/02 03:19:58;;;;;;;29.02;15.18;;;1.70;99.90;;;;;;5087613;28;40817;-72
2022/11/02 03:22:31;;;;;;;25.27;14.20;;;1.70;99.90;;;;;;5084127;28;42794;-71
2022/11/02 03:25:05;;;;;;;30.42;15.00;;;1.80;99.90;;;;;;5087396;28;42081;-71
2022/11/02 03:27:39;;;;;;;32.60;15.27;;;1.70;99.90;;;;;;5104577;28;40658;-71
2022/11/02 03:30:13;;;;;;;24.67;13.90;;;1.70;99.90;;;;;;5104720;28;40954;-71
2022/11/02 03:32:47;;;;;;;32.58;16.27;;;1.60;99.90;;;;;;5087168;28;43870;-68
2022/11/02 03:35:19;;;;;;;32.55;15.40;;;1.50;99.90;;;;;;5087193;28;42352;-69
2022/11/02 03:37:49;;;;;;;29.58;14.27;;;1.50;99.90;;;;;;5085808;28;40614;-69
2022/11/02 03:40:20;;;;;;;32.63;16.08;;;1.60;99.90;;;;;;5079413;28;41287;-70
2022/11/02 03:42:49;;;;;;;31.27;14.85;;;1.50;99.90;;;;;;5074761;28;43317;-69
2022/11/02 03:45:21;;;;;;;25.73;15.70;;;1.40;99.90;;;;;;5079554;28;199375;-69
2022/11/02 03:47:52;;;;;;;33.47;15.75;;;1.40;99.90;;;;;;5072389;28;165286;-69
2022/11/02 03:50:22;;;;;;;36.45;18.38;;;1.40;99.90;;;;;;5087157;28;40154;-69
2022/11/02 03:52:56;;;;;;;34.65;17.17;;;1.30;99.90;;;;;;5069922;28;41923;-69
2022/11/02 03:55:28;;;;;;;32.28;17.92;;;1.20;99.90;;;;;;5085526;28;42165;-69
2022/11/02 03:57:57;;;;;;;37.38;18.52;;;1.20;99.90;;;;;;5086443;28;40025;-70
2022/11/02 04:00:33;;;;;;;31.85;17.55;;;1.20;99.90;;;;;;5086399;28;39839;-69
2022/11/02 04:03:06;;;;;;;37.38;18.17;;;1.20;99.90;;;;;;5083377;28;43506;-69
2022/11/02 04:05:39;;;;;;;26.25;15.35;;;1.20;99.90;;;;;;5082400;28;42754;-70
2022/11/02 04:08:23;;;;;;;29.80;15.57;;;1.10;99.90;;;;;;5083270;28;41200;-69
2022/11/02 04:16:30;;;;;;;30.90;15.18;;;1.20;99.90;;;;;;5086503;28;42373;-70
2022/11/02 04:27:13;;;;;;;34.72;17.45;;;1.10;99.90;;;;;;5065777;28;43056;-68
2022/11/02 04:29:41;;;;;;;37.10;20.50;;;1.10;99.90;;;;;;5083404;28;40647;-68
2022/11/02 04:32:11;;;;;;;35.72;18.38;;;1.10;99.90;;;;;;5086394;28;40762;-71
2022/11/02 04:34:38;;;;;;;40.65;19.17;;;1.10;99.90;;;;;;5079833;28;43081;-70
2022/11/02 04:38:39;;;;;;;37.35;17.58;;;1.10;99.90;;;;;;5082986;28;42281;-71
2022/11/02 04:39:53;;;;;;;35.83;17.13;;;1.10;99.90;;;;;;5082656;28;41904;-69
2022/11/02 04:42:21;;;;;;;34.08;16.38;;;1.10;99.90;;;;;;5086047;28;39802;-69
2022/11/02 04:44:57;;;;;;;37.40;18.05;;;1.10;99.90;;;;;;5082463;28;43016;-69
2022/11/02 04:47:27;;;;;;;37.28;19.40;;;1.10;99.90;;;;;;5085504;28;43066;-69
2022/11/02 04:49:55;;;;;;;41.53;20.63;;;1.10;99.90;;;;;;5082154;28;40143;-71
2022/11/02 04:52:23;;;;;;;45.65;23.35;;;1.00;99.90;;;;;;5087352;28;40355;-69
2022/11/02 04:54:52;;;;;;;46.72;25.48;;;1.00;99.90;;;;;;5082274;28;44368;-69
2022/11/02 04:57:20;;;;;;;42.40;24.42;;;1.00;99.90;;;;;;5083528;28;43677;-71
2022/11/02 04:59:49;;;;;;;42.75;24.20;;;1.10;99.90;;;;;;5085845;28;39538;-69
2022/11/02 05:02:17;;;;;;;44.33;22.35;;;1.00;99.90;;;;;;5085699;28;39516;-71
2022/11/02 05:04:46;;;;;;;43.63;21.00;;;1.00;99.90;;;;;;5068246;28;42779;-71
2022/11/02 05:07:16;;;;;;;41.55;20.77;;;1.10;99.90;;;;;;5082123;28;43043;-72
2022/11/02 05:09:44;;;;;;;44.35;21.15;;;1.20;99.90;;;;;;5083554;28;41130;-70
2022/11/02 05:12:13;;;;;;;44.38;21.67;;;1.20;99.90;;;;;;5082291;28;40455;-69
2022/11/02 05:14:42;;;;;;;40.95;21.08;;;1.20;99.90;;;;;;5085406;28;42746;-70
2022/11/02 05:17:12;;;;;;;45.28;22.85;;;1.50;99.90;;;;;;5082235;28;43873;-71
2022/11/02 05:19:40;;;;;;;40.60;19.45;;;1.70;99.90;;;;;;5085432;28;40412;-70
2022/11/02 05:22:10;;;;;;;43.42;23.23;;;1.70;99.90;;;;;;5085172;28;39999;-71
2022/11/02 05:24:38;;;;;;;39.78;20.23;;;1.90;99.90;;;;;;5085620;28;42535;-71
2022/11/02 05:27:06;;;;;;;42.75;27.70;;;1.80;99.90;;;;;;5080412;28;43792;-72
2022/11/02 05:29:37;;;;;;;51.08;30.67;;;1.80;99.90;;;;;;5085300;28;39866;-71
2022/11/02 05:32:05;;;;;;;66.05;40.75;;;1.90;99.90;;;;;;5082500;28;39738;-70
2022/11/02 05:34:34;;;;;;;45.72;27.83;;;1.90;99.90;;;;;;5085142;28;43744;-69
2022/11/02 05:37:02;;;;;;;40.95;25.75;;;2.00;99.90;;;;;;5084237;28;43069;-71
2022/11/02 05:39:31;;;;;;;56.75;30.40;;;2.10;99.90;;;;;;5085712;28;40504;-69
2022/11/02 05:41:59;;;;;;;52.53;28.33;;;2.10;99.90;;;;;;5085738;28;40368;-72
2022/11/02 05:44:27;;;;;;;50.35;25.98;;;2.20;99.90;;;;;;5088284;28;42619;-72
2022/11/02 05:46:55;;;;;;;49.88;26.50;;;2.20;99.90;;;;;;5088647;28;42578;-70
2022/11/02 05:49:23;;;;;;;52.63;27.73;;;2.30;99.90;;;;;;5086672;28;41051;-70
2022/11/02 05:51:51;;;;;;;47.88;27.60;;;2.50;99.90;;;;;;5086447;28;40590;-73
2022/11/02 05:54:20;;;;;;;46.53;27.02;;;2.60;99.90;;;;;;5086548;28;44436;-70
2022/11/02 05:56:49;;;;;;;53.00;28.17;;;2.70;99.90;;;;;;5089047;28;41980;-72
2022/11/02 05:59:17;;;;;;;47.92;27.50;;;2.80;99.90;;;;;;5105671;28;40394;-71
2022/11/02 06:01:45;;;;;;;49.83;27.17;;;2.90;99.90;;;;;;5086659;28;40708;-72
2022/11/02 06:04:13;;;;;;;42.30;25.65;;;2.90;99.90;;;;;;5086594;28;44296;-72
2022/11/02 06:06:41;;;;;;;39.25;25.75;;;3.00;99.90;;;;;;5086691;28;44089;-72
2022/11/02 06:09:09;;;;;;;38.92;22.30;;;3.20;99.90;;;;;;5086670;28;41345;-71
2022/11/02 06:11:37;;;;;;;27.58;16.65;;;3.10;99.90;;;;;;5086328;28;40362;-71
2022/11/02 06:14:07;;;;;;;35.97;26.27;;;3.20;99.90;;;;;;5088321;28;42687;-71
2022/11/02 06:16:35;;;;;;;33.33;19.35;;;3.10;99.90;;;;;;5086120;28;42622;-74
2022/11/02 06:19:03;;;;;;;27.98;16.80;;;3.10;99.90;;;;;;5086361;28;40644;-72
2022/11/02 06:21:31;;;;;;;27.80;15.88;;;3.30;99.90;;;;;;5085636;28;40910;-71
2022/11/02 06:23:59;;;;;;;35.35;17.08;;;3.60;99.90;;;;;;5086963;28;43212;-74
2022/11/02 06:26:27;;;;;;;37.83;16.52;;;3.70;99.90;;;;;;5086238;28;43430;-74
2022/11/02 06:28:54;;;;;;;31.10;17.83;;;3.90;99.90;;;;;;5105307;28;38789;-75
2022/11/02 06:31:24;;;;;;;27.77;16.67;;;3.90;99.90;;;;;;5071102;28;39430;-74
2022/11/02 06:33:52;;;;;;;31.65;16.20;;;4.00;99.90;;;;;;5088295;28;41439;-75
2022/11/02 06:36:20;;;;;;;29.27;16.33;;;4.10;99.90;;;;;;5070756;28;42571;-74
2022/11/02 06:38:48;;;;;;;35.65;18.92;;;4.30;99.90;;;;;;5086042;28;41325;-74
2022/11/02 06:41:16;;;;;;;38.88;19.20;;;4.20;99.90;;;;;;5086640;28;39426;-74
2022/11/02 06:43:44;;;;;;;35.78;18.83;;;4.20;99.90;;;;;;5088932;28;42519;-74
2022/11/02 06:46:12;;;;;;;60.75;36.60;;;4.30;99.90;;;;;;5085724;28;42579;-74
2022/11/02 06:48:41;;;;;;;47.58;25.63;;;4.40;99.90;;;;;;5084373;28;41344;-75
2022/11/02 06:51:10;;;;;;;47.78;25.55;;;4.50;99.90;;;;;;5085747;28;40459;-75
2022/11/02 06:53:37;;;;;;;40.65;22.10;;;4.60;99.90;;;;;;5086297;28;44418;-75
2022/11/02 06:56:06;;;;;;;43.38;22.63;;;4.60;99.90;;;;;;5085558;28;43224;-74
2022/11/02 06:58:34;;;;;;;38.65;20.60;;;4.70;99.90;;;;;;5085690;28;40309;-73
2022/11/02 07:01:04;;;;;;;36.35;20.38;;;4.70;99.90;;;;;;5085777;28;40911;-74
2022/11/02 07:03:32;;;;;;;37.10;19.73;;;4.70;99.90;;;;;;5087549;28;42675;-74
2022/11/02 07:06:02;;;;;;;30.13;19.38;;;4.90;99.90;;;;;;5085681;28;42789;-77
2022/11/02 07:08:30;;;;;;;37.75;23.92;;;5.30;99.90;;;;;;5104860;28;38578;-74
2022/11/02 07:10:58;;;;;;;40.85;22.83;;;5.30;99.90;;;;;;5085842;28;40621;-75
2022/11/02 07:13:26;;;;;;;40.00;23.40;;;5.60;99.90;;;;;;5085835;28;43193;-73
2022/11/02 07:15:54;;;;;;;42.03;21.60;;;6.00;99.90;;;;;;5085341;28;43125;-74
2022/11/02 07:18:22;;;;;;;30.83;16.95;;;6.20;99.90;;;;;;5085694;28;40365;-73
2022/11/02 07:20:50;;;;;;;28.80;15.48;;;6.40;99.90;;;;;;5085431;28;41192;-74
2022/11/02 07:23:22;;;;;;;24.73;12.88;;;6.30;99.90;;;;;;5085414;28;43098;-75
2022/11/02 07:25:50;;;;;;;25.27;13.43;;;6.40;99.90;;;;;;5085436;28;42539;-75
2022/11/02 07:28:18;;;;;;;27.25;15.20;;;6.60;88.40;;;;;;5084229;28;41171;-75
2022/11/02 07:30:46;;;;;;;28.48;15.68;;;6.70;72.10;;;;;;5058854;28;763411;-75
2022/11/02 07:33:14;;;;;;;29.13;16.38;;;7.20;75.40;;;;;;5085448;28;44046;-75
2022/11/02 07:35:42;;;;;;;24.45;15.40;;;7.10;45.10;;;;;;5085416;28;43280;-74
2022/11/02 07:38:10;;;;;;;23.85;13.65;;;7.40;38.10;;;;;;5087677;28;40864;-74
2022/11/02 07:40:40;;;;;;;25.85;14.50;;;7.40;11.60;;;;;;5085378;28;40322;-74
2022/11/02 07:43:08;;;;;;;38.38;20.73;;;7.70;10.00;;;;;;5085140;28;43787;-75
2022/11/02 07:46:02;;;;;;;34.25;17.35;;;7.70;1.00;;;;;;5042759;28;165715;-74
2022/11/02 07:48:31;;;;;;;23.77;14.45;;;7.40;1.00;;;;;;5069268;28;191042;-75
2022/11/02 07:50:59;;;;;;;18.25;11.65;;;7.60;1.00;;;;;;5079757;28;190798;-75
2022/11/02 07:53:27;;;;;;;23.23;12.82;;;7.80;1.00;;;;;;5084853;28;42895;-75
2022/11/02 07:55:56;;;;;;;28.15;16.63;;;8.20;1.00;;;;;;5084428;28;43034;-74
2022/11/02 07:58:25;;;;;;;37.88;20.67;;;7.80;1.00;;;;;;5074080;28;190681;-75
2022/11/02 08:00:54;;;;;;;37.05;21.80;;;7.60;1.00;;;;;;5073504;28;190874;-74
2022/11/02 08:03:21;;;;;;;28.80;18.45;;;7.40;1.00;;;;;;5074037;28;165184;-74
2022/11/02 08:05:49;;;;;;;28.25;15.38;;;7.50;1.00;;;;;;5074229;28;193163;-74
2022/11/02 08:08:18;;;;;;;29.75;18.08;;;7.60;1.00;;;;;;5068719;28;190695;-74
2022/11/02 08:10:47;;;;;;;39.05;21.95;;;8.20;1.00;;;;;;5063390;28;190595;-75
2022/11/02 08:13:18;;;;;;;38.05;20.45;;;8.50;1.00;;;;;;5063444;28;193165;-75
2022/11/02 08:15:49;;;;;;;29.63;16.95;;;8.60;1.00;;;;;;5057863;28;193424;-73
2022/11/02 08:18:18;;;;;;;23.83;15.80;;;9.00;1.00;;;;;;5057120;28;190700;-74
2022/11/02 08:20:47;;;;;;;26.58;15.52;;;8.90;1.00;;;;;;5079242;28;165271;-74
2022/11/02 08:23:16;;;;;;;28.00;15.20;;;9.00;1.00;;;;;;5082985;28;54026;-74
2022/11/02 08:25:45;;;;;;;23.55;15.10;;;9.40;1.00;;;;;;5086603;28;41610;-75
2022/11/02 08:28:14;;;;;;;27.48;15.95;;;9.50;1.00;;;;;;5084622;28;41172;-75
2022/11/02 08:30:44;;;;;;;26.83;14.38;;;9.00;1.00;;;;;;5097336;28;163187;-75
2022/11/02 08:33:14;;;;;;;27.35;13.88;;;8.90;1.00;;;;;;5042214;28;193048;-75
2022/11/02 08:35:43;;;;;;;27.38;16.00;;;9.40;1.00;;;;;;5073582;28;193053;-75
2022/11/02 08:38:12;;;;;;;29.02;15.55;;;9.20;1.00;;;;;;5086883;28;41294;-75
2022/11/02 08:40:40;;;;;;;25.48;14.77;;;9.10;1.00;;;;;;5084680;28;40738;-74
2022/11/02 08:43:09;;;;;;;38.42;18.48;;;9.00;1.00;;;;;;5085800;28;43522;-75
2022/11/02 08:45:39;;;;;;;42.30;17.30;;;9.10;1.00;;;;;;5084167;28;42324;-75
2022/11/02 08:48:09;;;;;;;41.90;15.43;;;8.90;1.00;;;;;;5084129;28;41239;-74
2022/11/02 08:50:38;;;;;;;36.60;16.27;;;9.10;1.00;;;;;;5085918;28;39220;-74
2022/11/02 08:53:06;;;;;;;24.70;15.75;;;9.00;1.00;;;;;;5084005;28;43715;-75
2022/11/02 08:55:34;;;;;;;28.25;15.80;;;9.10;1.00;;;;;;5082817;28;42907;-74
2022/11/02 08:58:03;;;;;;;25.80;15.25;;;9.40;1.00;;;;;;5085805;28;40621;-74
2022/11/02 09:00:32;;;;;;;29.40;18.30;;;9.70;1.00;;;;;;5084409;28;41202;-74
2022/11/02 09:03:01;;;;;;;32.50;20.38;;;9.70;1.00;;;;;;5082419;28;43642;-74
2022/11/02 09:05:32;;;;;;;29.70;17.92;;;9.30;1.00;;;;;;5084067;28;43976;-75
2022/11/02 09:08:03;;;;;;;38.75;21.08;;;9.40;1.00;;;;;;5083931;28;40379;-75
2022/11/02 09:10:33;;;;;;;34.90;18.48;;;9.10;1.00;;;;;;5084514;28;40919;-75
2022/11/02 09:13:01;;;;;;;25.33;16.33;;;9.30;1.00;;;;;;5087310;28;44353;-74
2022/11/02 09:15:30;;;;;;;24.73;13.55;;;9.20;1.00;;;;;;5087282;28;43865;-74
2022/11/02 09:17:58;;;;;;;23.08;12.40;;;9.10;1.00;;;;;;5087343;28;40357;-75
2022/11/02 09:20:26;;;;;;;24.20;12.52;;;9.20;1.00;;;;;;5087391;28;41208;-75
2022/11/02 09:22:55;;;;;;;21.40;12.32;;;9.60;1.00;;;;;;5087383;28;42617;-75
2022/11/02 09:25:24;;;;;;;21.58;13.73;;;9.90;1.00;;;;;;5087121;28;42614;-75
2022/11/02 09:27:53;;;;;;;22.35;11.93;;;10.10;1.00;;;;;;5087270;28;40496;-75
2022/11/02 09:30:22;;;;;;;20.73;10.43;;;10.40;1.00;;;;;;5087325;28;41069;-76
2022/11/02 09:32:54;;;;;;;19.90;12.48;;;10.10;1.00;;;;;;5086825;28;42939;-75
2022/11/02 09:35:24;;;;;;;19.05;11.10;;;9.70;1.00;;;;;;5090195;28;43237;-76
2022/11/02 09:37:52;;;;;;;19.88;11.00;;;9.70;1.00;;;;;;5089187;28;40462;-75
2022/11/02 09:40:23;;;;;;;24.25;13.07;;;9.50;1.00;;;;;;5087117;28;41483;-75
2022/11/02 09:43:01;;;;;;;65.70;44.60;;;9.10;1.00;;;;;;5086849;28;42980;-75
2022/11/02 09:45:31;;;;;;;69.93;44.95;;;9.20;1.00;;;;;;5086918;28;42595;-75
2022/11/02 09:48:02;;;;;;;21.90;13.02;;;9.10;1.00;;;;;;5086893;28;41267;-75
2022/11/02 09:50:37;;;;;;;25.60;11.73;;;9.20;1.00;;;;;;5086866;28;40428;-76
2022/11/02 09:53:08;;;;;;;19.92;12.32;;;9.40;1.00;;;;;;5086748;28;44267;-74
2022/11/02 09:55:49;;;;;;;27.58;18.10;;;9.60;1.00;;;;;;5086815;28;43131;-74
2022/11/02 09:58:20;;;;;;;29.45;19.60;;;9.70;1.00;;;;;;5087006;28;40686;-75
2022/11/02 10:00:48;;;;;;;26.35;16.00;;;9.70;1.00;;;;;;5071780;28;39707;-75
2022/11/02 10:03:25;;;;;;;27.63;15.57;;;9.60;1.00;;;;;;5086582;28;43811;-73
2022/11/02 10:05:56;;;;;;;24.85;12.85;;;10.10;1.00;;;;;;5086603;28;42620;-73
2022/11/02 10:08:38;;;;;;;32.28;18.58;;;10.30;1.00;;;;;;5086419;28;40387;-75
2022/11/02 10:11:19;;;;;;;74.43;36.15;;;9.80;1.00;;;;;;5086641;28;40820;-76
2022/11/02 10:13:52;;;;;;;47.30;26.67;;;10.20;1.00;;;;;;5086314;28;43838;-74
2022/11/02 10:16:22;;;;;;;54.50;30.45;;;10.50;1.00;;;;;;5086490;28;42833;-76
2022/11/02 10:18:52;;;;;;;73.03;40.28;;;10.60;1.00;;;;;;5086967;28;40332;-75
2022/11/02 10:21:22;;;;;;;28.65;16.42;;;10.70;1.00;;;;;;5087010;28;40028;-75
2022/11/02 10:23:52;;;;;;;37.95;22.40;;;10.70;1.00;;;;;;5085624;28;43104;-75
2022/11/02 10:26:24;;;;;;;28.35;16.23;;;10.70;1.00;;;;;;5086666;28;42153;-75
2022/11/02 10:28:58;;;;;;;34.67;17.02;;;10.70;1.00;;;;;;5086526;28;40315;-76
2022/11/02 10:31:29;;;;;;;27.80;16.25;;;10.90;1.00;;;;;;5086520;28;39911;-75
2022/11/02 10:34:01;;;;;;;33.70;19.85;;;11.00;1.00;;;;;;5088365;28;42562;-75
2022/11/02 10:36:38;;;;;;;101.05;59.72;;;11.10;1.00;;;;;;5086321;28;42666;-75
2022/11/02 10:39:13;;;;;;;31.73;16.85;;;11.20;1.00;;;;;;5086740;28;40221;-75
2022/11/02 10:41:56;;;;;;;20.83;11.52;;;10.80;1.00;;;;;;5086618;28;41026;-75
2022/11/02 10:44:51;;;;;;;22.48;11.75;;;10.30;1.00;;;;;;5088945;28;43108;-75
2022/11/02 10:47:21;;;;;;;26.75;15.73;;;10.40;1.00;;;;;;5087990;28;42390;-74
2022/11/02 10:50:13;;;;;;;23.30;13.48;;;10.20;1.00;;;;;;5086264;28;41829;-74
2022/11/02 10:52:43;;;;;;;20.65;12.20;;;10.10;1.00;;;;;;5083043;28;40361;-75
2022/11/02 10:55:20;;;;;;;25.88;14.32;;;10.20;1.00;;;;;;5104935;28;42669;-74
2022/11/02 10:57:49;;;;;;;21.50;13.40;;;10.20;1.00;;;;;;5085767;28;42980;-74
2022/11/02 11:00:29;;;;;;;24.77;14.00;;;10.50;1.00;;;;;;5085876;28;41250;-73
2022/11/02 11:03:05;;;;;;;25.98;13.55;;;11.00;1.00;;;;;;5085850;28;41745;-76
2022/11/02 11:05:33;;;;;;;25.53;16.60;;;11.30;1.00;;;;;;5101366;28;43242;-75
2022/11/02 11:08:02;;;;;;;27.42;17.10;;;11.40;1.00;;;;;;5085891;28;43880;-78
2022/11/02 11:10:35;;;;;;;26.58;18.95;;;11.20;1.00;;;;;;5085672;28;40668;-75
2022/11/02 11:13:06;;;;;;;28.45;16.17;;;11.20;1.00;;;;;;5085742;28;40660;-74
2022/11/02 11:15:34;;;;;;;27.10;13.27;;;11.10;1.00;;;;;;5085424;28;43190;-75
2022/11/02 11:18:13;;;;;;;24.05;14.80;;;11.00;1.00;;;;;;5086809;28;43315;-75
2022/11/02 11:20:42;;;;;;;25.98;13.93;;;11.00;1.00;;;;;;5085674;28;40601;-75
2022/11/02 11:23:19;;;;;;;26.40;16.30;;;10.60;1.00;;;;;;5085416;28;41496;-74
2022/11/02 11:25:53;;;;;;;;;;;10.90;1.00;;;;;;5085967;28;44062;-74
2022/11/02 11:28:25;;;;;;;23.15;14.88;;;10.90;1.00;;;;;;5085840;28;43377;-75
2022/11/02 11:31:09;;;;;;;24.05;14.65;;;11.00;1.00;;;;;;5085455;28;40472;-74
2022/11/02 11:33:53;;;;;;;100.00;61.20;;;11.00;1.00;;;;;;5084093;28;40922;-76
2022/11/02 11:36:24;;;;;;;56.05;36.25;;;10.90;1.00;;;;;;5086843;28;43259;-75
2022/11/02 11:38:54;;;;;;;33.25;21.15;;;10.80;1.00;;;;;;5085137;28;42495;-75
2022/11/02 11:41:23;;;;;;;28.35;16.80;;;10.70;1.00;;;;;;5085280;28;41231;-75
2022/11/02 11:43:53;;;;;;;23.50;14.05;;;10.90;1.00;;;;;;5084514;28;41265;-74
2022/11/02 11:46:20;;;;;;;29.77;18.02;;;11.10;1.00;;;;;;5084944;28;43941;-75
2022/11/02 11:48:51;;;;;;;26.27;15.07;;;11.00;1.00;;;;;;5100792;28;42929;-76
2022/11/02 11:51:28;;;;;;;35.60;20.52;;;10.90;1.00;;;;;;5085142;28;40251;-74
2022/11/02 11:54:24;;;;;;;26.65;14.18;;;10.80;1.00;;;;;;5085007;28;40485;-74
2022/11/02 11:56:54;;;;;;;25.02;16.23;;;11.00;1.00;;;;;;5081146;28;41502;-75
2022/11/02 11:59:32;;;;;;;22.30;14.45;;;10.90;1.00;;;;;;5084914;28;42317;-75
2022/11/02 12:02:01;;;;;;;19.30;11.65;;;11.10;1.00;;;;;;5085071;28;40949;-75
2022/11/02 12:04:31;;;;;;;18.63;11.02;;;10.90;1.00;;;;;;5085055;28;40229;-74
2022/11/02 12:07:19;;;;;;;32.55;23.17;;;11.00;1.00;;;;;;5084679;28;43599;-75
2022/11/02 12:09:51;;;;;;;47.28;33.13;;;11.00;1.00;;;;;;5084448;28;43532;-76
2022/11/02 12:12:27;;;;;;;33.53;19.67;;;10.80;1.00;;;;;;5084753;28;40924;-75
2022/11/02 12:15:05;;;;;;;28.55;17.80;;;10.60;1.00;;;;;;5084800;28;41450;-75
2022/11/02 12:17:53;;;;;;;24.33;12.68;;;10.50;1.00;;;;;;5084755;28;43577;-77
2022/11/02 12:20:40;;;;;;;30.30;14.50;;;10.30;1.00;;;;;;5084848;28;43352;-75
2022/11/02 12:23:20;;;;;;;64.10;30.70;;;10.20;1.00;;;;;;5080202;28;40661;-75
2022/11/02 12:25:52;;;;;;;100.97;54.33;;;10.00;1.00;;;;;;5084801;28;39992;-74
2022/11/02 12:28:30;;;;;;;88.57;43.38;;;9.80;1.00;;;;;;5084765;28;42701;-74
2022/11/02 12:31:06;;;;;;;63.47;28.42;;;9.70;1.00;;;;;;5084646;28;43710;-76
2022/11/02 12:33:48;;;;;;;48.33;21.95;;;9.60;1.00;;;;;;5084727;28;41027;-76
2022/11/02 12:36:25;;;;;;;36.15;17.90;;;9.40;1.00;;;;;;5082645;28;40102;-73
2022/11/02 12:39:05;;;;;;;30.42;17.38;;;9.20;1.00;;;;;;5087366;28;44608;-74
2022/11/02 12:41:50;;;;;;;90.63;44.08;;;9.30;1.00;;;;;;5084526;28;42386;-75
2022/11/02 12:44:45;;;;;;;113.50;57.10;;;9.20;1.00;;;;;;5086522;28;40734;-75
2022/11/02 12:47:31;;;;;;;77.10;38.10;;;9.20;1.00;;;;;;5085781;28;40303;-75
2022/11/02 12:50:07;;;;;;;62.97;31.13;;;9.20;1.00;;;;;;5084247;28;45077;-75
2022/11/02 12:52:43;;;;;;;41.13;24.67;;;9.20;1.00;;;;;;5084249;28;43583;-74
2022/11/02 12:55:16;;;;;;;35.15;18.98;;;9.20;1.00;;;;;;5084363;28;40541;-75
2022/11/02 12:57:44;;;;;;;25.00;12.88;;;9.30;1.00;;;;;;5086278;28;40143;-75
2022/11/02 13:00:19;;;;;;;19.88;11.50;;;9.30;1.00;;;;;;5084000;28;43675;-75
2022/11/02 13:02:58;;;;;;;24.38;13.00;;;9.40;1.00;;;;;;5083521;28;43159;-74
2022/11/02 13:05:28;;;;;;;25.58;12.60;;;9.30;1.00;;;;;;5082848;28;41202;-75
2022/11/02 13:08:02;;;;;;;25.27;15.00;;;9.40;1.00;;;;;;5086382;28;39129;-74
2022/11/02 13:10:34;;;;;;;33.25;19.67;;;9.40;1.00;;;;;;5083567;28;42962;-75
2022/11/02 13:13:03;;;;;;;26.73;16.65;;;9.40;1.00;;;;;;5083811;28;43366;-75